sensor_id;sensor_type;location;lat;lon;timestamp;temperature;humidity
59282;DHT22;45054;52.062;10.010;2023-01-10T00:00:10;6.50;99.90
59282;DHT22;45054;52.062;10.010;2023-01-10T00:02:36;6.50;99.90
59282;DHT22;45054;52.062;10.010;2023-01-10T00:05:03;6.50;99.90
59282;DHT22;45054;52.062;10.010;2023-01-10T00:07:29;6.60;99.90
59282;DHT22;45054;52.062;10.010;2023-01-10T00:09:54;6.60;99.90
59282;DHT22;45054;52.062;10.010;2023-01-10T00:12:20;6.60;99.90
59282;DHT22;45054;52.062;10.010;2023-01-10T00:14:46;6.60;99.90
59282;DHT22;45054;52.062;10.010;2023-01-10T00:17:11;6.60;99.90
59282;DHT22;45054;52.062;10.010;2023-01-10T00:19:37;6.60;99.90
59282;DHT22;45054;52.062;10.010;2023-01-10T00:22:04;6.50;99.90
59282;DHT22;45054;52.062;10.010;2023-01-10T00:24:29;6.60;99.90
59282;DHT22;45054;52.062;10.010;2023-01-10T00:26:55;6.60;99.90
59282;DHT22;45054;52.062;10.010;2023-01-10T00:29:24;6.60;99.90
59282;DHT22;45054;52.062;10.010;2023-01-10T00:31:49;6.70;99.90
59282;DHT22;45054;52.062;10.010;2023-01-10T00:34:15;6.70;99.90
59282;DHT22;45054;52.062;10.010;2023-01-10T00:36:41;6.70;99.90
59282;DHT22;45054;52.062;10.010;2023-01-10T00:39:08;6.70;99.90
59282;DHT22;45054;52.062;10.010;2023-01-10T00:41:33;6.70;99.90
59282;DHT22;45054;52.062;10.010;2023-01-10T00:43:59;6.70;99.90
59282;DHT22;45054;52.062;10.010;2023-01-10T00:46:25;6.80;99.90
59282;DHT22;45054;52.062;10.010;2023-01-10T00:48:51;6.70;99.90
59282;DHT22;45054;52.062;10.010;2023-01-10T00:51:16;6.60;99.90
59282;DHT22;45054;52.062;10.010;2023-01-10T00:53:42;6.60;99.90
59282;DHT22;45054;52.062;10.010;2023-01-10T00:56:09;6.60;99.90
59282;DHT22;45054;52.062;10.010;2023-01-10T00:58:34;6.60;99.90
59282;DHT22;45054;52.062;10.010;2023-01-10T01:01:00;6.60;99.90
59282;DHT22;45054;52.062;10.010;2023-01-10T01:03:26;6.60;99.90
59282;DHT22;45054;52.062;10.010;2023-01-10T01:05:52;6.60;99.90
59282;DHT22;45054;52.062;10.010;2023-01-10T01:08:18;6.50;99.90
59282;DHT22;45054;52.062;10.010;2023-01-10T01:10:44;6.50;99.90
59282;DHT22;45054;52.062;10.010;2023-01-10T01:13:13;6.50;99.90
59282;DHT22;45054;52.062;10.010;2023-01-10T01:15:40;6.50;99.90
59282;DHT22;45054;52.062;10.010;2023-01-10T01:18:06;6.60;99.90
59282;DHT22;45054;52.062;10.010;2023-01-10T01:20:32;6.50;99.90
59282;DHT22;45054;52.062;10.010;2023-01-10T01:22:58;6.50;99.90
59282;DHT22;45054;52.062;10.010;2023-01-10T01:25:23;6.60;99.90
59282;DHT22;45054;52.062;10.010;2023-01-10T01:27:49;6.60;99.90
59282;DHT22;45054;52.062;10.010;2023-01-10T01:30:16;6.60;99.90
59282;DHT22;45054;52.062;10.010;2023-01-10T01:32:42;6.60;99.90
59282;DHT22;45054;52.062;10.010;2023-01-10T01:35:09;6.60;99.90
59282;DHT22;45054;52.062;10.010;2023-01-10T01:37:35;6.50;99.90
59282;DHT22;45054;52.062;10.010;2023-01-10T01:40:01;6.50;99.90
59282;DHT22;45054;52.062;10.010;2023-01-10T01:42:28;6.50;99.90
59282;DHT22;45054;52.062;10.010;2023-01-10T01:45:37;6.50;99.90
59282;DHT22;45054;52.062;10.010;2023-01-10T01:48:10;6.50;99.90
59282;DHT22;45054;52.062;10.010;2023-01-10T01:50:41;6.60;99.90
59282;DHT22;45054;52.062;10.010;2023-01-10T01:53:12;6.60;99.90
59282;DHT22;45054;52.062;10.010;2023-01-10T01:55:40;6.60;99.90
59282;DHT22;45054;52.062;10.010;2023-01-10T01:58:11;6.60;99.90
59282;DHT22;45054;52.062;10.010;2023-01-10T02:00:39;6.60;99.90
59282;DHT22;45054;52.062;10.010;2023-01-10T02:03:04;6.70;99.90
59282;DHT22;45054;52.062;10.010;2023-01-10T02:05:32;6.70;99.90
59282;DHT22;45054;52.062;10.010;2023-01-10T02:08:00;6.70;99.90
59282;DHT22;45054;52.062;10.010;2023-01-10T02:10:30;6.70;99.90
59282;DHT22;45054;52.062;10.010;2023-01-10T02:13:01;6.70;99.90
59282;DHT22;45054;52.062;10.010;2023-01-10T02:15:28;6.70;99.90
59282;DHT22;45054;52.062;10.010;2023-01-10T02:17:56;6.60;99.90
59282;DHT22;45054;52.062;10.010;2023-01-10T02:20:23;6.60;99.90
59282;DHT22;45054;52.062;10.010;2023-01-10T02:23:30;6.60;99.90
59282;DHT22;45054;52.062;10.010;2023-01-10T02:29:25;6.60;99.90
59282;DHT22;45054;52.062;10.010;2023-01-10T02:32:15;6.60;99.90
59282;DHT22;45054;52.062;10.010;2023-01-10T02:34:52;6.50;99.90
59282;DHT22;45054;52.062;10.010;2023-01-10T02:37:24;6.40;99.90
59282;DHT22;45054;52.062;10.010;2023-01-10T02:39:57;6.40;99.90
59282;DHT22;45054;52.062;10.010;2023-01-10T02:42:27;6.40;99.90
59282;DHT22;45054;52.062;10.010;2023-01-10T02:44:59;6.40;99.90
59282;DHT22;45054;52.062;10.010;2023-01-10T02:47:34;6.30;99.90
59282;DHT22;45054;52.062;10.010;2023-01-10T02:50:22;6.40;99.90
59282;DHT22;45054;52.062;10.010;2023-01-10T02:52:52;6.30;99.90
59282;DHT22;45054;52.062;10.010;2023-01-10T02:55:21;6.30;99.90
59282;DHT22;45054;52.062;10.010;2023-01-10T02:57:54;6.20;99.90
59282;DHT22;45054;52.062;10.010;2023-01-10T03:00:34;6.30;99.90
59282;DHT22;45054;52.062;10.010;2023-01-10T03:03:18;6.30;99.90
59282;DHT22;45054;52.062;10.010;2023-01-10T03:05:53;6.30;99.90
59282;DHT22;45054;52.062;10.010;2023-01-10T03:08:28;6.20;99.90
59282;DHT22;45054;52.062;10.010;2023-01-10T03:10:57;6.20;99.90
59282;DHT22;45054;52.062;10.010;2023-01-10T03:13:26;6.20;99.90
59282;DHT22;45054;52.062;10.010;2023-01-10T03:15:54;6.30;99.90
59282;DHT22;45054;52.062;10.010;2023-01-10T03:18:27;6.30;99.90
59282;DHT22;45054;52.062;10.010;2023-01-10T03:20:57;6.40;99.90
59282;DHT22;45054;52.062;10.010;2023-01-10T03:23:24;6.40;99.90
59282;DHT22;45054;52.062;10.010;2023-01-10T03:25:51;6.40;99.90
59282;DHT22;45054;52.062;10.010;2023-01-10T03:28:23;6.30;99.90
59282;DHT22;45054;52.062;10.010;2023-01-10T03:30:53;6.30;99.90
59282;DHT22;45054;52.062;10.010;2023-01-10T03:33:19;6.40;99.90
59282;DHT22;45054;52.062;10.010;2023-01-10T03:35:58;6.40;99.90
59282;DHT22;45054;52.062;10.010;2023-01-10T03:38:29;6.40;99.90
59282;DHT22;45054;52.062;10.010;2023-01-10T03:41:02;6.30;99.90
59282;DHT22;45054;52.062;10.010;2023-01-10T03:43:38;6.40;99.90
59282;DHT22;45054;52.062;10.010;2023-01-10T03:46:08;6.40;99.90
59282;DHT22;45054;52.062;10.010;2023-01-10T03:48:36;6.30;99.90
59282;DHT22;45054;52.062;10.010;2023-01-10T03:51:05;6.20;99.90
59282;DHT22;45054;52.062;10.010;2023-01-10T03:53:32;6.20;99.90
59282;DHT22;45054;52.062;10.010;2023-01-10T03:55:59;6.30;99.90
59282;DHT22;45054;52.062;10.010;2023-01-10T03:58:25;6.30;99.90
59282;DHT22;45054;52.062;10.010;2023-01-10T04:00:52;6.30;99.90
59282;DHT22;45054;52.062;10.010;2023-01-10T04:03:18;6.20;99.90
59282;DHT22;45054;52.062;10.010;2023-01-10T04:05:43;6.20;99.90
59282;DHT22;45054;52.062;10.010;2023-01-10T04:08:10;6.20;99.90
59282;DHT22;45054;52.062;10.010;2023-01-10T04:10:36;6.20;99.90
59282;DHT22;45054;52.062;10.010;2023-01-10T04:13:03;6.20;99.90
59282;DHT22;45054;52.062;10.010;2023-01-10T04:15:29;6.30;99.90
59282;DHT22;45054;52.062;10.010;2023-01-10T04:17:55;6.30;99.90
59282;DHT22;45054;52.062;10.010;2023-01-10T04:20:20;6.30;99.90
59282;DHT22;45054;52.062;10.010;2023-01-10T04:22:47;6.30;99.90
59282;DHT22;45054;52.062;10.010;2023-01-10T04:25:14;6.20;99.90
59282;DHT22;45054;52.062;10.010;2023-01-10T04:27:39;6.20;99.90
59282;DHT22;45054;52.062;10.010;2023-01-10T04:30:06;6.20;99.90
59282;DHT22;45054;52.062;10.010;2023-01-10T04:32:32;6.20;99.90
59282;DHT22;45054;52.062;10.010;2023-01-10T04:34:57;6.20;99.90
59282;DHT22;45054;52.062;10.010;2023-01-10T04:37:23;6.20;99.90
59282;DHT22;45054;52.062;10.010;2023-01-10T04:39:48;6.20;99.90
59282;DHT22;45054;52.062;10.010;2023-01-10T04:42:16;6.20;99.90
59282;DHT22;45054;52.062;10.010;2023-01-10T04:44:42;6.20;99.90
59282;DHT22;45054;52.062;10.010;2023-01-10T04:47:08;6.20;99.90
59282;DHT22;45054;52.062;10.010;2023-01-10T04:49:33;6.30;99.90
59282;DHT22;45054;52.062;10.010;2023-01-10T04:51:59;6.30;99.90
59282;DHT22;45054;52.062;10.010;2023-01-10T04:54:25;6.30;99.90
59282;DHT22;45054;52.062;10.010;2023-01-10T04:56:51;6.40;99.90
59282;DHT22;45054;52.062;10.010;2023-01-10T04:59:18;6.40;99.90
59282;DHT22;45054;52.062;10.010;2023-01-10T05:01:43;6.50;99.90
59282;DHT22;45054;52.062;10.010;2023-01-10T05:04:09;6.40;99.90
59282;DHT22;45054;52.062;10.010;2023-01-10T05:06:35;6.40;99.90
59282;DHT22;45054;52.062;10.010;2023-01-10T05:09:01;6.30;99.90
59282;DHT22;45054;52.062;10.010;2023-01-10T05:11:26;6.30;99.90
59282;DHT22;45054;52.062;10.010;2023-01-10T05:13:52;6.20;99.90
59282;DHT22;45054;52.062;10.010;2023-01-10T05:16:19;6.30;99.90
59282;DHT22;45054;52.062;10.010;2023-01-10T05:18:44;6.30;99.90
59282;DHT22;45054;52.062;10.010;2023-01-10T05:21:11;6.30;99.90
59282;DHT22;45054;52.062;10.010;2023-01-10T05:23:38;6.30;99.90
59282;DHT22;45054;52.062;10.010;2023-01-10T05:26:05;6.30;99.90
59282;DHT22;45054;52.062;10.010;2023-01-10T05:28:31;6.30;99.90
59282;DHT22;45054;52.062;10.010;2023-01-10T05:30:56;6.30;99.90
59282;DHT22;45054;52.062;10.010;2023-01-10T05:33:23;6.30;99.90
59282;DHT22;45054;52.062;10.010;2023-01-10T05:35:49;6.30;99.90
59282;DHT22;45054;52.062;10.010;2023-01-10T05:38:14;6.30;99.90
59282;DHT22;45054;52.062;10.010;2023-01-10T05:40:40;6.30;99.90
59282;DHT22;45054;52.062;10.010;2023-01-10T05:43:06;6.20;99.90
59282;DHT22;45054;52.062;10.010;2023-01-10T05:45:31;6.20;99.90
59282;DHT22;45054;52.062;10.010;2023-01-10T05:47:57;6.20;99.90
59282;DHT22;45054;52.062;10.010;2023-01-10T05:50:24;6.20;99.90
59282;DHT22;45054;52.062;10.010;2023-01-10T05:52:49;6.20;99.90
59282;DHT22;45054;52.062;10.010;2023-01-10T05:55:15;6.20;99.90
59282;DHT22;45054;52.062;10.010;2023-01-10T05:57:40;6.10;99.90
59282;DHT22;45054;52.062;10.010;2023-01-10T06:00:07;6.00;99.90
59282;DHT22;45054;52.062;10.010;2023-01-10T06:02:33;6.00;99.90
59282;DHT22;45054;52.062;10.010;2023-01-10T06:04:58;6.00;99.90
59282;DHT22;45054;52.062;10.010;2023-01-10T06:07:25;6.00;99.90
59282;DHT22;45054;52.062;10.010;2023-01-10T06:09:51;6.00;99.90
59282;DHT22;45054;52.062;10.010;2023-01-10T06:12:17;6.00;99.90
59282;DHT22;45054;52.062;10.010;2023-01-10T06:14:42;6.00;99.90
59282;DHT22;45054;52.062;10.010;2023-01-10T06:17:08;6.00;99.90
59282;DHT22;45054;52.062;10.010;2023-01-10T06:19:33;6.00;99.90
59282;DHT22;45054;52.062;10.010;2023-01-10T06:21:59;6.10;99.90
59282;DHT22;45054;52.062;10.010;2023-01-10T06:24:26;6.10;99.90
59282;DHT22;45054;52.062;10.010;2023-01-10T06:26:51;6.20;99.90
59282;DHT22;45054;52.062;10.010;2023-01-10T06:29:17;6.20;99.90
59282;DHT22;45054;52.062;10.010;2023-01-10T06:31:42;6.20;99.90
59282;DHT22;45054;52.062;10.010;2023-01-10T06:34:08;6.20;99.90
59282;DHT22;45054;52.062;10.010;2023-01-10T06:36:34;6.20;99.90
59282;DHT22;45054;52.062;10.010;2023-01-10T06:38:59;6.20;99.90
59282;DHT22;45054;52.062;10.010;2023-01-10T06:41:26;6.20;99.90
59282;DHT22;45054;52.062;10.010;2023-01-10T06:43:52;6.30;99.90
59282;DHT22;45054;52.062;10.010;2023-01-10T06:46:18;6.30;99.90
59282;DHT22;45054;52.062;10.010;2023-01-10T06:48:44;6.30;99.90
59282;DHT22;45054;52.062;10.010;2023-01-10T06:51:11;6.20;99.90
59282;DHT22;45054;52.062;10.010;2023-01-10T06:53:36;6.30;99.90
59282;DHT22;45054;52.062;10.010;2023-01-10T06:56:02;6.30;99.90
59282;DHT22;45054;52.062;10.010;2023-01-10T06:58:29;6.30;99.90
59282;DHT22;45054;52.062;10.010;2023-01-10T07:00:55;6.30;99.90
59282;DHT22;45054;52.062;10.010;2023-01-10T07:03:20;6.30;99.90
59282;DHT22;45054;52.062;10.010;2023-01-10T07:05:46;6.40;99.90
59282;DHT22;45054;52.062;10.010;2023-01-10T07:08:11;6.40;99.90
59282;DHT22;45054;52.062;10.010;2023-01-10T07:10:39;6.40;99.90
59282;DHT22;45054;52.062;10.010;2023-01-10T07:13:05;6.40;99.90
59282;DHT22;45054;52.062;10.010;2023-01-10T07:15:32;6.40;99.90
59282;DHT22;45054;52.062;10.010;2023-01-10T07:17:57;6.40;99.90
59282;DHT22;45054;52.062;10.010;2023-01-10T07:20:23;6.40;99.90
59282;DHT22;45054;52.062;10.010;2023-01-10T07:22:52;6.40;99.90
59282;DHT22;45054;52.062;10.010;2023-01-10T07:25:18;6.40;99.90
59282;DHT22;45054;52.062;10.010;2023-01-10T07:27:43;6.40;99.90
59282;DHT22;45054;52.062;10.010;2023-01-10T07:30:10;6.40;99.90
59282;DHT22;45054;52.062;10.010;2023-01-10T07:32:37;6.40;99.90
59282;DHT22;45054;52.062;10.010;2023-01-10T07:35:03;6.40;99.90
59282;DHT22;45054;52.062;10.010;2023-01-10T07:37:28;6.40;99.90
59282;DHT22;45054;52.062;10.010;2023-01-10T07:39:54;6.40;99.90
59282;DHT22;45054;52.062;10.010;2023-01-10T07:42:20;6.40;99.90
59282;DHT22;45054;52.062;10.010;2023-01-10T07:44:45;6.30;99.90
59282;DHT22;45054;52.062;10.010;2023-01-10T07:47:11;6.30;99.90
59282;DHT22;45054;52.062;10.010;2023-01-10T07:49:38;6.30;99.90
59282;DHT22;45054;52.062;10.010;2023-01-10T07:52:03;6.30;99.90
59282;DHT22;45054;52.062;10.010;2023-01-10T07:54:29;6.30;99.90
59282;DHT22;45054;52.062;10.010;2023-01-10T07:56:54;6.30;99.90
59282;DHT22;45054;52.062;10.010;2023-01-10T07:59:20;6.30;99.90
59282;DHT22;45054;52.062;10.010;2023-01-10T08:01:45;6.40;99.90
59282;DHT22;45054;52.062;10.010;2023-01-10T08:04:11;6.30;99.90
59282;DHT22;45054;52.062;10.010;2023-01-10T08:06:38;6.40;99.90
59282;DHT22;45054;52.062;10.010;2023-01-10T08:09:03;6.40;99.90
59282;DHT22;45054;52.062;10.010;2023-01-10T08:11:29;6.40;99.90
59282;DHT22;45054;52.062;10.010;2023-01-10T08:13:54;6.40;99.90
59282;DHT22;45054;52.062;10.010;2023-01-10T08:16:20;6.40;99.90
59282;DHT22;45054;52.062;10.010;2023-01-10T08:18:46;6.40;99.90
59282;DHT22;45054;52.062;10.010;2023-01-10T08:21:11;6.40;99.90
59282;DHT22;45054;52.062;10.010;2023-01-10T08:23:38;6.40;99.90
59282;DHT22;45054;52.062;10.010;2023-01-10T08:26:04;6.40;99.90
59282;DHT22;45054;52.062;10.010;2023-01-10T08:28:30;6.40;99.90
59282;DHT22;45054;52.062;10.010;2023-01-10T08:30:55;6.40;99.90
59282;DHT22;45054;52.062;10.010;2023-01-10T08:33:21;6.40;99.90
59282;DHT22;45054;52.062;10.010;2023-01-10T08:35:47;6.30;99.90
59282;DHT22;45054;52.062;10.010;2023-01-10T08:38:13;6.40;99.90
59282;DHT22;45054;52.062;10.010;2023-01-10T08:40:40;6.40;99.90
59282;DHT22;45054;52.062;10.010;2023-01-10T08:43:08;6.40;99.90
59282;DHT22;45054;52.062;10.010;2023-01-10T08:45:34;6.40;99.90
59282;DHT22;45054;52.062;10.010;2023-01-10T08:47:59;6.40;99.90
59282;DHT22;45054;52.062;10.010;2023-01-10T08:50:25;6.40;99.90
59282;DHT22;45054;52.062;10.010;2023-01-10T08:52:50;6.50;99.90
59282;DHT22;45054;52.062;10.010;2023-01-10T08:55:16;6.50;99.90
59282;DHT22;45054;52.062;10.010;2023-01-10T08:57:43;6.50;99.90
59282;DHT22;45054;52.062;10.010;2023-01-10T09:00:10;6.50;99.90
59282;DHT22;45054;52.062;10.010;2023-01-10T09:02:36;6.50;99.90
59282;DHT22;45054;52.062;10.010;2023-01-10T09:05:01;6.50;99.90
59282;DHT22;45054;52.062;10.010;2023-01-10T09:07:27;6.50;99.90
59282;DHT22;45054;52.062;10.010;2023-01-10T09:09:52;6.60;99.90
59282;DHT22;45054;52.062;10.010;2023-01-10T09:12:18;6.70;99.90
59282;DHT22;45054;52.062;10.010;2023-01-10T09:14:45;6.80;99.90
59282;DHT22;45054;52.062;10.010;2023-01-10T09:17:10;6.80;99.90
59282;DHT22;45054;52.062;10.010;2023-01-10T09:19:36;6.80;99.90
59282;DHT22;45054;52.062;10.010;2023-01-10T09:22:02;6.80;99.90
59282;DHT22;45054;52.062;10.010;2023-01-10T09:24:27;6.80;99.90
59282;DHT22;45054;52.062;10.010;2023-01-10T09:26:56;6.90;99.90
59282;DHT22;45054;52.062;10.010;2023-01-10T09:29:21;6.90;99.90
59282;DHT22;45054;52.062;10.010;2023-01-10T09:31:48;6.90;99.90
59282;DHT22;45054;52.062;10.010;2023-01-10T09:34:14;6.90;99.90
59282;DHT22;45054;52.062;10.010;2023-01-10T09:36:40;6.90;99.90
59282;DHT22;45054;52.062;10.010;2023-01-10T09:39:05;6.80;99.90
59282;DHT22;45054;52.062;10.010;2023-01-10T09:41:58;6.80;99.90
59282;DHT22;45054;52.062;10.010;2023-01-10T09:44:38;6.80;99.90
59282;DHT22;45054;52.062;10.010;2023-01-10T09:47:12;6.70;99.90
59282;DHT22;45054;52.062;10.010;2023-01-10T09:49:48;6.70;99.90
59282;DHT22;45054;52.062;10.010;2023-01-10T09:52:21;6.70;99.90
59282;DHT22;45054;52.062;10.010;2023-01-10T09:54:49;6.70;99.90
59282;DHT22;45054;52.062;10.010;2023-01-10T09:57:18;6.80;99.90
59282;DHT22;45054;52.062;10.010;2023-01-10T09:59:45;6.80;99.90
59282;DHT22;45054;52.062;10.010;2023-01-10T10:02:22;6.80;99.90
59282;DHT22;45054;52.062;10.010;2023-01-10T10:05:03;6.90;99.90
59282;DHT22;45054;52.062;10.010;2023-01-10T10:07:31;6.90;99.90
59282;DHT22;45054;52.062;10.010;2023-01-10T10:09:57;6.90;99.90
59282;DHT22;45054;52.062;10.010;2023-01-10T10:12:29;6.90;99.90
59282;DHT22;45054;52.062;10.010;2023-01-10T10:15:10;6.90;99.90
59282;DHT22;45054;52.062;10.010;2023-01-10T10:17:45;6.90;99.90
59282;DHT22;45054;52.062;10.010;2023-01-10T10:20:22;6.90;99.90
59282;DHT22;45054;52.062;10.010;2023-01-10T10:22:56;6.90;99.90
59282;DHT22;45054;52.062;10.010;2023-01-10T10:25:39;6.90;99.90
59282;DHT22;45054;52.062;10.010;2023-01-10T10:28:20;6.90;99.90
59282;DHT22;45054;52.062;10.010;2023-01-10T10:30:57;6.90;99.90
59282;DHT22;45054;52.062;10.010;2023-01-10T10:33:41;6.80;99.90
59282;DHT22;45054;52.062;10.010;2023-01-10T10:36:13;6.90;99.90
59282;DHT22;45054;52.062;10.010;2023-01-10T10:38:42;6.80;99.90
59282;DHT22;45054;52.062;10.010;2023-01-10T10:41:16;6.90;99.90
59282;DHT22;45054;52.062;10.010;2023-01-10T10:43:44;6.90;99.90
59282;DHT22;45054;52.062;10.010;2023-01-10T10:46:13;7.00;99.90
59282;DHT22;45054;52.062;10.010;2023-01-10T10:48:47;7.10;99.90
59282;DHT22;45054;52.062;10.010;2023-01-10T10:51:18;7.00;99.90
59282;DHT22;45054;52.062;10.010;2023-01-10T10:53:47;7.10;99.90
59282;DHT22;45054;52.062;10.010;2023-01-10T10:56:16;7.10;99.90
59282;DHT22;45054;52.062;10.010;2023-01-10T10:58:45;7.10;99.90
59282;DHT22;45054;52.062;10.010;2023-01-10T11:01:13;7.10;99.90
59282;DHT22;45054;52.062;10.010;2023-01-10T11:03:43;7.10;99.90
59282;DHT22;45054;52.062;10.010;2023-01-10T11:06:13;7.10;99.90
59282;DHT22;45054;52.062;10.010;2023-01-10T11:08:43;7.10;99.90
59282;DHT22;45054;52.062;10.010;2023-01-10T11:11:17;7.20;99.90
59282;DHT22;45054;52.062;10.010;2023-01-10T11:13:46;7.30;99.90
59282;DHT22;45054;52.062;10.010;2023-01-10T11:16:24;7.30;99.90
59282;DHT22;45054;52.062;10.010;2023-01-10T11:19:09;7.30;99.90
59282;DHT22;45054;52.062;10.010;2023-01-10T11:21:35;7.30;99.90
59282;DHT22;45054;52.062;10.010;2023-01-10T11:24:02;7.30;99.90
59282;DHT22;45054;52.062;10.010;2023-01-10T11:26:30;7.30;99.90
59282;DHT22;45054;52.062;10.010;2023-01-10T11:29:06;7.30;99.90
59282;DHT22;45054;52.062;10.010;2023-01-10T11:31:34;7.40;99.90
59282;DHT22;45054;52.062;10.010;2023-01-10T11:34:04;7.50;99.90
59282;DHT22;45054;52.062;10.010;2023-01-10T11:36:53;7.60;99.90
59282;DHT22;45054;52.062;10.010;2023-01-10T11:39:19;7.60;99.90
59282;DHT22;45054;52.062;10.010;2023-01-10T11:41:45;7.60;99.90
59282;DHT22;45054;52.062;10.010;2023-01-10T11:44:21;7.60;99.90
59282;DHT22;45054;52.062;10.010;2023-01-10T11:46:48;7.70;99.90
59282;DHT22;45054;52.062;10.010;2023-01-10T11:49:22;7.70;99.90
59282;DHT22;45054;52.062;10.010;2023-01-10T11:51:51;7.70;99.90
59282;DHT22;45054;52.062;10.010;2023-01-10T11:54:20;7.70;99.90
59282;DHT22;45054;52.062;10.010;2023-01-10T11:56:55;7.80;99.90
59282;DHT22;45054;52.062;10.010;2023-01-10T11:59:22;7.90;99.90
59282;DHT22;45054;52.062;10.010;2023-01-10T12:01:53;8.00;99.90
59282;DHT22;45054;52.062;10.010;2023-01-10T12:04:22;8.10;99.90
59282;DHT22;45054;52.062;10.010;2023-01-10T12:06:50;8.30;99.90
59282;DHT22;45054;52.062;10.010;2023-01-10T12:09:35;8.40;99.90
59282;DHT22;45054;52.062;10.010;2023-01-10T12:12:02;8.40;99.90
59282;DHT22;45054;52.062;10.010;2023-01-10T12:14:28;8.30;99.90
59282;DHT22;45054;52.062;10.010;2023-01-10T12:16:58;8.30;99.90
59282;DHT22;45054;52.062;10.010;2023-01-10T12:19:26;8.30;99.90
59282;DHT22;45054;52.062;10.010;2023-01-10T12:21:54;8.30;99.90
59282;DHT22;45054;52.062;10.010;2023-01-10T12:24:26;8.20;99.90
59282;DHT22;45054;52.062;10.010;2023-01-10T12:26:53;8.10;99.90
59282;DHT22;45054;52.062;10.010;2023-01-10T12:29:23;8.10;99.90
59282;DHT22;45054;52.062;10.010;2023-01-10T12:31:50;8.10;99.90
59282;DHT22;45054;52.062;10.010;2023-01-10T12:34:19;8.10;99.90
59282;DHT22;45054;52.062;10.010;2023-01-10T12:36:55;8.00;99.90
59282;DHT22;45054;52.062;10.010;2023-01-10T12:39:25;7.90;99.90
59282;DHT22;45054;52.062;10.010;2023-01-10T12:42:00;7.90;99.90
59282;DHT22;45054;52.062;10.010;2023-01-10T12:44:31;7.90;99.90
59282;DHT22;45054;52.062;10.010;2023-01-10T12:47:00;7.90;99.90
59282;DHT22;45054;52.062;10.010;2023-01-10T12:49:28;8.00;99.90
59282;DHT22;45054;52.062;10.010;2023-01-10T12:52:01;8.00;99.90
59282;DHT22;45054;52.062;10.010;2023-01-10T12:54:29;8.00;99.90
59282;DHT22;45054;52.062;10.010;2023-01-10T12:56:57;8.10;99.90
59282;DHT22;45054;52.062;10.010;2023-01-10T12:59:27;8.10;99.90
59282;DHT22;45054;52.062;10.010;2023-01-10T13:01:57;8.10;99.90
59282;DHT22;45054;52.062;10.010;2023-01-10T13:04:24;8.00;99.90
59282;DHT22;45054;52.062;10.010;2023-01-10T13:06:51;8.00;99.90
59282;DHT22;45054;52.062;10.010;2023-01-10T13:09:23;7.90;99.90
59282;DHT22;45054;52.062;10.010;2023-01-10T13:11:55;7.90;99.90
59282;DHT22;45054;52.062;10.010;2023-01-10T13:14:26;7.90;99.90
59282;DHT22;45054;52.062;10.010;2023-01-10T13:16:56;7.90;99.90
59282;DHT22;45054;52.062;10.010;2023-01-10T13:19:24;7.90;99.90
59282;DHT22;45054;52.062;10.010;2023-01-10T13:22:19;7.90;99.90
59282;DHT22;45054;52.062;10.010;2023-01-10T13:24:55;7.90;99.90
59282;DHT22;45054;52.062;10.010;2023-01-10T13:27:30;7.80;99.90
59282;DHT22;45054;52.062;10.010;2023-01-10T13:29:56;7.80;99.90
59282;DHT22;45054;52.062;10.010;2023-01-10T13:32:24;7.70;99.90
59282;DHT22;45054;52.062;10.010;2023-01-10T13:34:50;7.70;99.90
59282;DHT22;45054;52.062;10.010;2023-01-10T13:37:22;7.70;99.90
59282;DHT22;45054;52.062;10.010;2023-01-10T13:39:51;7.60;99.90
59282;DHT22;45054;52.062;10.010;2023-01-10T13:42:29;7.60;99.90
59282;DHT22;45054;52.062;10.010;2023-01-10T13:45:14;7.60;99.90
59282;DHT22;45054;52.062;10.010;2023-01-10T13:47:59;7.60;99.90
59282;DHT22;45054;52.062;10.010;2023-01-10T13:50:51;7.60;99.90
59282;DHT22;45054;52.062;10.010;2023-01-10T13:56:33;7.60;99.90
59282;DHT22;45054;52.062;10.010;2023-01-10T13:58:59;7.60;99.90
59282;DHT22;45054;52.062;10.010;2023-01-10T14:01:27;7.60;99.90
59282;DHT22;45054;52.062;10.010;2023-01-10T14:03:54;7.60;99.90
59282;DHT22;45054;52.062;10.010;2023-01-10T14:06:34;7.70;99.90
59282;DHT22;45054;52.062;10.010;2023-01-10T14:09:04;7.60;99.90
59282;DHT22;45054;52.062;10.010;2023-01-10T14:11:49;7.60;99.90
59282;DHT22;45054;52.062;10.010;2023-01-10T14:14:19;7.50;99.90
59282;DHT22;45054;52.062;10.010;2023-01-10T14:16:48;7.50;99.90
59282;DHT22;45054;52.062;10.010;2023-01-10T14:19:23;7.50;99.90
59282;DHT22;45054;52.062;10.010;2023-01-10T14:21:52;7.50;99.90
59282;DHT22;45054;52.062;10.010;2023-01-10T14:24:23;7.50;99.90
59282;DHT22;45054;52.062;10.010;2023-01-10T14:26:52;7.50;99.90
59282;DHT22;45054;52.062;10.010;2023-01-10T14:29:18;7.50;99.90
59282;DHT22;45054;52.062;10.010;2023-01-10T14:31:46;7.40;99.90
59282;DHT22;45054;52.062;10.010;2023-01-10T14:34:17;7.40;99.90
59282;DHT22;45054;52.062;10.010;2023-01-10T14:36:52;7.40;99.90
59282;DHT22;45054;52.062;10.010;2023-01-10T14:39:20;7.40;99.90
59282;DHT22;45054;52.062;10.010;2023-01-10T14:41:49;7.30;99.90
59282;DHT22;45054;52.062;10.010;2023-01-10T14:44:20;7.40;99.90
59282;DHT22;45054;52.062;10.010;2023-01-10T14:46:48;7.30;99.90
59282;DHT22;45054;52.062;10.010;2023-01-10T14:49:25;7.30;99.90
59282;DHT22;45054;52.062;10.010;2023-01-10T14:51:51;7.30;99.90
59282;DHT22;45054;52.062;10.010;2023-01-10T14:54:19;7.30;99.90
59282;DHT22;45054;52.062;10.010;2023-01-10T14:56:46;7.40;99.90
59282;DHT22;45054;52.062;10.010;2023-01-10T14:59:21;7.40;99.90
59282;DHT22;45054;52.062;10.010;2023-01-10T15:01:47;7.30;99.90
59282;DHT22;45054;52.062;10.010;2023-01-10T15:04:14;7.30;99.90
59282;DHT22;45054;52.062;10.010;2023-01-10T15:06:55;7.30;99.90
59282;DHT22;45054;52.062;10.010;2023-01-10T15:09:21;7.30;99.90
59282;DHT22;45054;52.062;10.010;2023-01-10T15:11:47;7.30;99.90
59282;DHT22;45054;52.062;10.010;2023-01-10T15:14:15;7.20;99.90
59282;DHT22;45054;52.062;10.010;2023-01-10T15:16:43;7.20;99.90
59282;DHT22;45054;52.062;10.010;2023-01-10T15:19:12;7.10;99.90
59282;DHT22;45054;52.062;10.010;2023-01-10T15:21:45;7.10;99.90
59282;DHT22;45054;52.062;10.010;2023-01-10T15:24:29;7.10;99.90
59282;DHT22;45054;52.062;10.010;2023-01-10T15:26:56;7.00;99.90
59282;DHT22;45054;52.062;10.010;2023-01-10T15:29:24;7.00;99.90
59282;DHT22;45054;52.062;10.010;2023-01-10T15:31:53;7.00;99.90
59282;DHT22;45054;52.062;10.010;2023-01-10T15:34:21;7.00;99.90
59282;DHT22;45054;52.062;10.010;2023-01-10T15:36:50;6.90;99.90
59282;DHT22;45054;52.062;10.010;2023-01-10T15:39:19;6.90;99.90
59282;DHT22;45054;52.062;10.010;2023-01-10T15:41:46;6.90;99.90
59282;DHT22;45054;52.062;10.010;2023-01-10T15:44:22;6.80;99.90
59282;DHT22;45054;52.062;10.010;2023-01-10T15:46:56;6.70;99.90